Time,TemperatureF,DewpointF,PressureIn,WindDirection,WindDirectionDegrees,WindSpeedMPH,WindSpeedGustMPH,Humidity,HourlyPrecipIn,Conditions,Clouds,dailyrainin,SolarRadiationWatts/m^2,SoftwareType,DateUTC
2013-06-29 00:00:00,72.6,63.1,29.95,NNW,346,1.0,4.0,72,0.00,,,0.00,0,Wunderground v.1.15,2013-06-29 07:00:00,
2013-06-29 00:09:00,72.5,63.0,29.95,North,360,1.0,4.0,72,0.00,,,0.00,0,Wunderground v.1.15,2013-06-29 07:09:00,
2013-06-29 00:14:00,72.5,63.0,29.95,North,360,2.0,4.0,72,0.00,,,0.00,0,Wunderground v.1.15,2013-06-29 07:14:00,
2013-06-29 00:19:00,72.4,62.9,29.95,North,360,2.0,3.0,72,0.00,,,0.00,0,Wunderground v.1.15,2013-06-29 07:19:00,
2013-06-29 00:24:00,72.4,62.9,29.95,North,360,2.0,3.0,72,0.00,,,0.00,0,Wunderground v.1.15,2013-06-29 07:24:00,
2013-06-29 00:29:00,72.2,62.7,29.95,North,360,1.0,1.0,72,0.00,,,0.00,0,Wunderground v.1.15,2013-06-29 07:29:00,
2013-06-29 00:34:00,72.0,62.5,29.95,North,360,0.0,1.0,72,0.00,,,0.00,0,Wunderground v.1.15,2013-06-29 07:34:00,
2013-06-29 00:44:00,71.5,62.4,29.95,North,360,0.0,0.0,73,0.00,,,0.00,0,Wunderground v.1.15,2013-06-29 07:44:00,
2013-06-29 00:49:00,71.3,62.2,29.95,North,360,0.0,0.0,73,0.00,,,0.00,0,Wunderground v.1.15,2013-06-29 07:49:00,
2013-06-29 00:55:00,71.3,62.2,29.94,North,360,0.0,0.0,73,0.00,,,0.00,0,Wunderground v.1.15,2013-06-29 07:55:00,
2013-06-29 01:00:00,71.2,62.1,29.95,North,360,0.0,0.0,73,0.00,,,0.00,0,Wunderground v.1.15,2013-06-29 08:00:00,
2013-06-29 01:09:00,71.0,61.9,29.95,North,360,0.0,0.0,73,0.00,,,0.00,0,Wunderground v.1.15,2013-06-29 08:09:00,
2013-06-29 01:19:00,70.7,61.6,29.94,North,5,1.0,3.0,73,0.00,,,0.00,0,Wunderground v.1.15,2013-06-29 08:19:00,
2013-06-29 01:24:00,70.7,61.6,29.95,North,9,2.0,3.0,73,0.00,,,0.00,0,Wunderground v.1.15,2013-06-29 08:24:00,
2013-06-29 01:29:00,70.6,61.5,29.95,North,9,3.0,3.0,73,0.00,,,0.00,0,Wunderground v.1.15,2013-06-29 08:29:00,
2013-06-29 01:34:00,70.4,61.3,29.94,North,9,1.0,3.0,73,0.00,,,0.00,0,Wunderground v.1.15,2013-06-29 08:34:00,
2013-06-29 01:39:00,70.3,61.2,29.94,North,9,0.0,0.0,73,0.00,,,0.00,0,Wunderground v.1.15,2013-06-29 08:39:00,
2013-06-29 01:44:00,70.1,61.0,29.94,North,9,0.0,0.0,73,0.00,,,0.00,0,Wunderground v.1.15,2013-06-29 08:44:00,
2013-06-29 01:54:00,70.2,61.1,29.94,North,11,1.0,2.0,73,0.00,,,0.00,0,Wunderground v.1.15,2013-06-29 08:54:00,
2013-06-29 02:00:00,70.0,60.9,29.94,North,10,0.0,0.0,73,0.00,,,0.00,0,Wunderground v.1.15,2013-06-29 09:00:00,
2013-06-29 02:09:00,70.0,60.6,29.94,NNE,26,2.0,4.0,72,0.00,,,0.00,0,Wunderground v.1.15,2013-06-29 09:09:00,
2013-06-29 02:14:00,70.0,60.6,29.93,NNE,26,4.0,4.0,72,0.00,,,0.00,0,Wunderground v.1.15,2013-06-29 09:14:00,
2013-06-29 02:19:00,69.8,60.4,29.93,NNE,26,2.0,2.0,72,0.00,,,0.00,0,Wunderground v.1.15,2013-06-29 09:19:00,
2013-06-29 02:29:00,69.7,60.3,29.93,NNE,26,0.0,0.0,72,0.00,,,0.00,0,Wunderground v.1.15,2013-06-29 09:29:00,
2013-06-29 02:34:00,69.0,60.0,29.93,NNE,26,0.0,0.0,73,0.00,,,0.00,0,Wunderground v.1.15,2013-06-29 09:34:00,
2013-06-29 02:39:00,68.1,59.9,29.93,NNE,26,0.0,0.0,75,0.00,,,0.00,0,Wunderground v.1.15,2013-06-29 09:39:00,
2013-06-29 02:44:00,67.4,59.9,29.93,NNE,26,0.0,0.0,77,0.00,,,0.00,0,Wunderground v.1.15,2013-06-29 09:44:00,
2013-06-29 02:50:00,66.5,59.1,29.93,NNE,26,0.0,0.0,77,0.00,,,0.00,0,Wunderground v.1.15,2013-06-29 09:50:00,
2013-06-29 03:00:00,65.4,59.1,29.94,NNE,26,0.0,0.0,80,0.00,,,0.00,0,Wunderground v.1.15,2013-06-29 10:00:00,
2013-06-29 03:09:00,65.9,59.6,29.93,NNW,343,0.0,0.0,80,0.00,,,0.00,0,Wunderground v.1.15,2013-06-29 10:09:00,
2013-06-29 03:14:00,65.9,59.9,29.93,NNW,343,0.0,0.0,81,0.00,,,0.00,0,Wunderground v.1.15,2013-06-29 10:14:00,
2013-06-29 03:19:00,65.9,59.9,29.93,NNW,343,0.0,0.0,81,0.00,,,0.00,0,Wunderground v.1.15,2013-06-29 10:19:00,
2013-06-29 03:24:00,66.0,60.0,29.93,NNW,343,0.0,0.0,81,0.00,,,0.00,0,Wunderground v.1.15,2013-06-29 10:24:00,
2013-06-29 03:34:00,65.9,59.6,29.93,NNW,343,0.0,0.0,80,0.00,,,0.00,0,Wunderground v.1.15,2013-06-29 10:34:00,
2013-06-29 03:39:00,65.4,59.4,29.93,NNW,343,0.0,0.0,81,0.00,,,0.00,0,Wunderground v.1.15,2013-06-29 10:39:00,
2013-06-29 03:44:00,65.1,59.5,29.93,NNW,343,0.0,0.0,82,0.00,,,0.00,0,Wunderground v.1.15,2013-06-29 10:44:00,
2013-06-29 03:50:00,64.9,59.3,29.93,NNW,343,0.0,0.0,82,0.00,,,0.00,0,Wunderground v.1.15,2013-06-29 10:50:00,
2013-06-29 04:00:00,64.6,59.0,29.93,NNW,343,0.0,0.0,82,0.00,,,0.00,0,Wunderground v.1.15,2013-06-29 11:00:00,
2013-06-29 04:09:00,64.5,59.2,29.93,NNW,343,0.0,0.0,83,0.00,,,0.00,0,Wunderground v.1.15,2013-06-29 11:09:00,
2013-06-29 04:14:00,64.5,59.2,29.92,NNW,343,0.0,0.0,83,0.00,,,0.00,0,Wunderground v.1.15,2013-06-29 11:14:00,
2013-06-29 04:19:00,64.7,59.1,29.92,NNW,343,0.0,0.0,82,0.00,,,0.00,0,Wunderground v.1.15,2013-06-29 11:19:00,
2013-06-29 04:24:00,65.0,59.0,29.92,NNW,343,0.0,0.0,81,0.00,,,0.00,0,Wunderground v.1.15,2013-06-29 11:24:00,
2013-06-29 04:29:00,65.1,58.8,29.92,NNW,343,0.0,0.0,80,0.00,,,0.00,0,Wunderground v.1.15,2013-06-29 11:29:00,
2013-06-29 04:34:00,65.5,59.2,29.93,NNW,343,0.0,0.0,80,0.00,,,0.00,0,Wunderground v.1.15,2013-06-29 11:34:00,
2013-06-29 04:44:00,65.0,58.0,29.93,NNW,343,0.0,0.0,78,0.00,,,0.00,0,Wunderground v.1.15,2013-06-29 11:44:00,
2013-06-29 04:50:00,64.0,58.1,29.93,NNW,343,0.0,0.0,81,0.00,,,0.00,0,Wunderground v.1.15,2013-06-29 11:50:00,
2013-06-29 04:55:00,63.7,58.4,29.93,NNW,343,0.0,0.0,83,0.00,,,0.00,0,Wunderground v.1.15,2013-06-29 11:55:00,
2013-06-29 05:04:00,64.5,58.5,29.93,NNW,343,0.0,0.0,81,0.00,,,0.00,0,Wunderground v.1.15,2013-06-29 12:04:00,
2013-06-29 05:09:00,64.5,58.5,29.93,NNW,343,0.0,0.0,81,0.00,,,0.00,0,Wunderground v.1.15,2013-06-29 12:09:00,
2013-06-29 05:19:00,65.9,59.2,29.94,NNW,343,0.0,0.0,79,0.00,,,0.00,0,Wunderground v.1.15,2013-06-29 12:19:00,
2013-06-29 05:24:00,65.4,58.4,29.94,NNW,343,0.0,0.0,78,0.00,,,0.00,9,Wunderground v.1.15,2013-06-29 12:24:00,
2013-06-29 05:29:00,64.4,58.4,29.94,NNW,343,0.0,0.0,81,0.00,,,0.00,9,Wunderground v.1.15,2013-06-29 12:29:00,
2013-06-29 05:34:00,63.9,58.3,29.94,NNW,335,0.0,0.0,82,0.00,,,0.00,11,Wunderground v.1.15,2013-06-29 12:34:00,
2013-06-29 05:40:00,63.6,58.3,29.94,NNW,335,0.0,0.0,83,0.00,,,0.00,12,Wunderground v.1.15,2013-06-29 12:40:00,
2013-06-29 05:50:00,64.3,58.7,29.94,NNW,336,0.0,2.0,82,0.00,,,0.00,23,Wunderground v.1.15,2013-06-29 12:50:00,
2013-06-29 05:55:00,65.4,59.1,29.94,NNW,336,0.0,2.0,80,0.00,,,0.00,28,Wunderground v.1.15,2013-06-29 12:55:00,
2013-06-29 06:04:00,66.1,59.0,29.94,NNW,336,0.0,0.0,78,0.00,,,0.00,39,Wunderground v.1.15,2013-06-29 13:04:00,
2013-06-29 06:09:00,66.2,58.8,29.94,NNW,336,0.0,0.0,77,0.00,,,0.00,56,Wunderground v.1.15,2013-06-29 13:09:00,
2013-06-29 06:14:00,66.6,58.8,29.94,NNW,336,0.0,0.0,76,0.00,,,0.00,67,Wunderground v.1.15,2013-06-29 13:14:00,
2013-06-29 06:19:00,67.1,58.9,29.94,NNW,336,1.0,1.0,75,0.00,,,0.00,84,Wunderground v.1.15,2013-06-29 13:19:00,
2013-06-29 06:24:00,67.5,58.9,29.95,NNW,336,1.0,3.0,74,0.00,,,0.00,98,Wunderground v.1.15,2013-06-29 13:24:00,
2013-06-29 06:30:00,67.8,59.2,29.94,NNW,336,1.0,1.0,74,0.00,,,0.00,105,Wunderground v.1.15,2013-06-29 13:30:00,
2013-06-29 06:35:00,68.1,59.1,29.94,North,5,1.0,1.0,73,0.00,,,0.00,123,Wunderground v.1.15,2013-06-29 13:35:00,
2013-06-29 06:44:00,68.7,59.3,29.94,North,5,0.0,2.0,72,0.00,,,0.00,153,Wunderground v.1.15,2013-06-29 13:44:00,
2013-06-29 06:49:00,69.1,59.3,29.94,North,360,0.0,0.0,71,0.00,,,0.00,163,Wunderground v.1.15,2013-06-29 13:49:00,
2013-06-29 07:00:00,69.2,59.0,29.94,NNW,333,3.0,4.0,70,0.00,,,0.00,192,Wunderground v.1.15,2013-06-29 14:00:00,
2013-06-29 07:09:00,69.6,59.4,29.94,NNW,347,2.0,5.0,70,0.00,,,0.00,220,Wunderground v.1.15,2013-06-29 14:09:00,
2013-06-29 07:14:00,69.9,59.3,29.94,NNW,348,1.0,5.0,69,0.00,,,0.00,234,Wunderground v.1.15,2013-06-29 14:14:00,
2013-06-29 07:19:00,70.1,59.5,29.94,NNW,348,1.0,1.0,69,0.00,,,0.00,246,Wunderground v.1.15,2013-06-29 14:19:00,
2013-06-29 07:25:00,70.1,59.5,29.94,North,351,0.0,3.0,69,0.00,,,0.00,260,Wunderground v.1.15,2013-06-29 14:25:00,
2013-06-29 07:30:00,70.4,59.3,29.94,North,10,2.0,6.0,68,0.00,,,0.00,276,Wunderground v.1.15,2013-06-29 14:30:00,
2013-06-29 07:39:00,70.6,59.1,29.94,North,5,3.0,4.0,67,0.00,,,0.00,308,Wunderground v.1.15,2013-06-29 14:39:00,
2013-06-29 07:44:00,71.1,60.0,29.94,North,360,3.0,4.0,68,0.00,,,0.00,322,Wunderground v.1.15,2013-06-29 14:44:00,
2013-06-29 07:49:00,71.6,59.6,29.94,North,355,3.0,4.0,66,0.00,,,0.00,336,Wunderground v.1.15,2013-06-29 14:49:00,
2013-06-29 07:54:00,71.1,59.6,29.94,North,350,3.0,4.0,67,0.00,,,0.00,350,Wunderground v.1.15,2013-06-29 14:54:00,
2013-06-29 08:00:00,71.2,59.3,29.94,North,355,3.0,4.0,66,0.00,,,0.00,367,Wunderground v.1.15,2013-06-29 15:00:00,
2013-06-29 08:10:00,71.9,60.3,29.94,NNW,344,1.0,1.0,67,0.00,,,0.00,394,Wunderground v.1.15,2013-06-29 15:10:00,
2013-06-29 08:15:00,71.7,60.2,29.94,North,355,2.0,4.0,67,0.00,,,0.00,410,Wunderground v.1.15,2013-06-29 15:15:00,
2013-06-29 08:24:00,71.7,60.2,29.94,NNE,15,3.0,7.0,67,0.00,,,0.00,436,Wunderground v.1.15,2013-06-29 15:24:00,
2013-06-29 08:29:00,72.2,60.2,29.94,NNE,15,3.0,6.0,66,0.00,,,0.00,452,Wunderground v.1.15,2013-06-29 15:29:00,
2013-06-29 08:34:00,72.6,60.2,29.94,NE,39,3.0,6.0,65,0.00,,,0.00,468,Wunderground v.1.15,2013-06-29 15:34:00,
2013-06-29 08:44:00,72.8,60.3,29.93,NNE,24,4.0,5.0,65,0.00,,,0.00,496,Wunderground v.1.15,2013-06-29 15:44:00,
2013-06-29 08:49:00,73.3,60.4,29.93,NNE,21,5.0,5.0,64,0.00,,,0.00,512,Wunderground v.1.15,2013-06-29 15:49:00,
2013-06-29 08:54:00,74.4,60.5,29.93,North,350,4.0,5.0,62,0.00,,,0.00,524,Wunderground v.1.15,2013-06-29 15:54:00,
2013-06-29 09:00:00,75.5,60.6,29.93,NNW,344,4.0,4.0,60,0.00,,,0.00,541,Wunderground v.1.15,2013-06-29 16:00:00,
2013-06-29 09:09:00,75.9,61.0,29.93,NNW,329,5.0,6.0,60,0.00,,,0.00,578,Wunderground v.1.15,2013-06-29 16:09:00,
2013-06-29 09:15:00,75.6,60.7,29.93,North,5,6.0,6.0,60,0.00,,,0.00,613,Wunderground v.1.15,2013-06-29 16:15:00,
2013-06-29 09:24:00,75.4,61.5,29.93,NNE,15,4.0,6.0,62,0.00,,,0.00,663,Wunderground v.1.15,2013-06-29 16:24:00,
2013-06-29 09:29:00,75.7,60.8,29.93,North,355,5.0,8.0,60,0.00,,,0.00,640,Wunderground v.1.15,2013-06-29 16:29:00,
2013-06-29 09:34:00,75.6,60.7,29.92,NE,34,7.0,8.0,60,0.00,,,0.00,700,Wunderground v.1.15,2013-06-29 16:34:00,
2013-06-29 09:39:00,76.3,60.9,29.92,North,355,7.0,8.0,59,0.00,,,0.00,429,Wunderground v.1.15,2013-06-29 16:39:00,
2013-06-29 09:49:00,76.9,61.5,29.92,NNW,338,6.0,6.0,59,0.00,,,0.00,513,Wunderground v.1.15,2013-06-29 16:49:00,
2013-06-29 09:54:00,77.0,61.1,29.92,North,360,5.0,6.0,58,0.00,,,0.00,800,Wunderground v.1.15,2013-06-29 16:54:00,
2013-06-29 10:00:00,77.4,61.0,29.92,NNW,346,6.0,6.0,57,0.00,,,0.00,503,Wunderground v.1.15,2013-06-29 17:00:00,
2013-06-29 10:09:00,76.7,59.8,29.92,North,351,7.0,7.0,56,0.00,,,0.00,501,Wunderground v.1.15,2013-06-29 17:09:00,
2013-06-29 10:14:00,77.2,59.8,29.92,North,355,7.0,7.0,55,0.00,,,0.00,469,Wunderground v.1.15,2013-06-29 17:14:00,
2013-06-29 10:24:00,76.8,58.9,29.92,North,11,6.0,6.0,54,0.00,,,0.00,552,Wunderground v.1.15,2013-06-29 17:24:00,
2013-06-29 10:29:00,77.5,60.1,29.92,NNW,331,5.0,6.0,55,0.00,,,0.00,838,Wunderground v.1.15,2013-06-29 17:29:00,
2013-06-29 10:34:00,77.9,59.9,29.92,North,9,6.0,8.0,54,0.00,,,0.00,666,Wunderground v.1.15,2013-06-29 17:34:00,
2013-06-29 10:39:00,78.3,59.8,29.92,NNW,327,6.0,9.0,53,0.00,,,0.00,323,Wunderground v.1.15,2013-06-29 17:39:00,
2013-06-29 10:44:00,78.8,59.7,29.92,North,5,7.0,9.0,52,0.00,,,0.00,529,Wunderground v.1.15,2013-06-29 17:44:00,
2013-06-29 10:50:00,78.8,57.4,29.92,NNW,344,8.0,10.0,48,0.00,,,0.00,473,Wunderground v.1.15,2013-06-29 17:50:00,
2013-06-29 10:59:00,80.2,57.5,29.92,North,5,8.0,8.0,46,0.00,,,0.00,817,Wunderground v.1.15,2013-06-29 17:59:00,
2013-06-29 11:09:00,80.6,57.3,29.92,NNE,26,9.0,9.0,45,0.00,,,0.00,838,Wunderground v.1.15,2013-06-29 18:09:00,
2013-06-29 11:14:00,80.7,56.8,29.92,North,5,9.0,9.0,44,0.00,,,0.00,840,Wunderground v.1.15,2013-06-29 18:14:00,
2013-06-29 11:19:00,81.1,56.5,29.91,North,360,8.0,12.0,43,0.00,,,0.00,846,Wunderground v.1.15,2013-06-29 18:19:00,
2013-06-29 11:24:00,81.1,57.7,29.91,NNE,26,8.0,12.0,45,0.00,,,0.00,847,Wunderground v.1.15,2013-06-29 18:24:00,
2013-06-29 11:34:00,81.3,57.3,29.91,North,9,8.0,10.0,44,0.00,,,0.00,865,Wunderground v.1.15,2013-06-29 18:34:00,
2013-06-29 11:40:00,82.1,57.4,29.91,NNW,346,8.0,8.0,43,0.00,,,0.00,870,Wunderground v.1.15,2013-06-29 18:40:00,
2013-06-29 11:45:00,82.0,58.6,29.91,NNW,335,7.0,8.0,45,0.00,,,0.00,875,Wunderground v.1.15,2013-06-29 18:45:00,
2013-06-29 11:54:00,83.0,58.2,29.91,NNW,348,7.0,7.0,43,0.00,,,0.00,889,Wunderground v.1.15,2013-06-29 18:54:00,
2013-06-29 12:00:00,82.0,57.9,29.91,NW,306,7.0,8.0,44,0.00,,,0.00,891,Wunderground v.1.15,2013-06-29 19:00:00,
2013-06-29 12:09:00,82.7,58.6,29.91,NNW,329,6.0,7.0,44,0.00,,,0.00,902,Wunderground v.1.15,2013-06-29 19:09:00,
2013-06-29 12:14:00,82.9,58.1,29.91,NW,309,6.0,7.0,43,0.00,,,0.00,905,Wunderground v.1.15,2013-06-29 19:14:00,
2013-06-29 12:19:00,82.4,58.3,29.91,NNE,26,6.0,6.0,44,0.00,,,0.00,875,Wunderground v.1.15,2013-06-29 19:19:00,
2013-06-29 12:25:00,82.9,58.7,29.91,NNE,19,7.0,7.0,44,0.00,,,0.00,918,Wunderground v.1.15,2013-06-29 19:25:00,
2013-06-29 12:30:00,83.4,59.8,29.90,NE,38,7.0,13.0,45,0.00,,,0.00,912,Wunderground v.1.15,2013-06-29 19:30:00,
2013-06-29 12:39:00,82.6,59.7,29.90,NW,311,9.0,9.0,46,0.00,,,0.00,895,Wunderground v.1.15,2013-06-29 19:39:00,
2013-06-29 12:44:00,82.9,60.0,29.90,NE,45,8.0,9.0,46,0.00,,,0.00,921,Wunderground v.1.15,2013-06-29 19:44:00,
2013-06-29 12:49:00,83.6,60.6,29.90,ENE,61,8.0,8.0,46,0.00,,,0.00,925,Wunderground v.1.15,2013-06-29 19:49:00,
2013-06-29 12:54:00,83.8,60.8,29.90,NNE,27,7.0,11.0,46,0.00,,,0.00,923,Wunderground v.1.15,2013-06-29 19:54:00,
2013-06-29 13:00:00,84.5,60.2,29.90,North,360,8.0,9.0,44,0.00,,,0.00,933,Wunderground v.1.15,2013-06-29 20:00:00,
2013-06-29 13:09:00,83.8,59.6,29.90,NE,42,9.0,11.0,44,0.00,,,0.00,933,Wunderground v.1.15,2013-06-29 20:09:00,
2013-06-29 13:15:00,83.9,59.7,29.89,NE,45,10.0,13.0,44,0.00,,,0.00,925,Wunderground v.1.15,2013-06-29 20:15:00,
2013-06-29 13:20:00,84.8,60.5,29.90,NE,41,9.0,9.0,44,0.00,,,0.00,923,Wunderground v.1.15,2013-06-29 20:20:00,
2013-06-29 13:29:00,85.8,60.1,29.89,ENE,61,7.0,11.0,42,0.00,,,0.00,944,Wunderground v.1.15,2013-06-29 20:29:00,
2013-06-29 13:34:00,85.0,60.0,29.89,North,351,9.0,11.0,43,0.00,,,0.00,923,Wunderground v.1.15,2013-06-29 20:34:00,
2013-06-29 13:39:00,85.2,60.8,29.89,NNE,16,8.0,8.0,44,0.00,,,0.00,932,Wunderground v.1.15,2013-06-29 20:39:00,
2013-06-29 13:49:00,86.0,60.2,29.88,NNE,28,7.0,9.0,42,0.00,,,0.00,923,Wunderground v.1.15,2013-06-29 20:49:00,
2013-06-29 13:54:00,85.9,60.1,29.89,NNW,344,10.0,10.0,42,0.00,,,0.00,926,Wunderground v.1.15,2013-06-29 20:54:00,
2013-06-29 14:00:00,85.4,59.7,29.88,NNW,336,8.0,8.0,42,0.00,,,0.00,926,Wunderground v.1.15,2013-06-29 21:00:00,
2013-06-29 14:10:00,85.7,59.3,29.88,NNE,32,7.0,7.0,41,0.00,,,0.00,921,Wunderground v.1.15,2013-06-29 21:10:00,
2013-06-29 14:19:00,86.9,59.0,29.88,NNE,22,7.0,7.0,39,0.00,,,0.00,919,Wunderground v.1.15,2013-06-29 21:19:00,
2013-06-29 14:24:00,86.7,58.8,29.88,NNE,15,5.0,7.0,39,0.00,,,0.00,916,Wunderground v.1.15,2013-06-29 21:24:00,
2013-06-29 14:29:00,86.9,58.2,29.88,NNE,32,4.0,5.0,38,0.00,,,0.00,911,Wunderground v.1.15,2013-06-29 21:29:00,
2013-06-29 14:34:00,87.2,59.2,29.87,NE,54,4.0,5.0,39,0.00,,,0.00,905,Wunderground v.1.15,2013-06-29 21:34:00,
2013-06-29 14:40:00,87.1,59.1,29.87,North,355,5.0,5.0,39,0.00,,,0.00,904,Wunderground v.1.15,2013-06-29 21:40:00,
2013-06-29 14:45:00,87.2,59.2,29.87,North,5,6.0,7.0,39,0.00,,,0.00,904,Wunderground v.1.15,2013-06-29 21:45:00,
2013-06-29 14:54:00,86.8,58.9,29.87,North,11,5.0,6.0,39,0.00,,,0.00,891,Wunderground v.1.15,2013-06-29 21:54:00,
2013-06-29 15:00:00,86.2,58.3,29.87,ENE,71,5.0,10.0,39,0.00,,,0.00,886,Wunderground v.1.15,2013-06-29 22:00:00,
2013-06-29 15:09:00,86.7,58.1,29.87,ENE,67,6.0,6.0,38,0.00,,,0.00,902,Wunderground v.1.15,2013-06-29 22:09:00,
2013-06-29 15:14:00,87.0,58.3,29.87,NE,40,7.0,7.0,38,0.00,,,0.00,896,Wunderground v.1.15,2013-06-29 22:14:00,
2013-06-29 15:19:00,87.0,59.0,29.86,NE,36,5.0,5.0,39,0.00,,,0.00,889,Wunderground v.1.15,2013-06-29 22:19:00,
2013-06-29 15:24:00,88.3,59.5,29.87,NNW,342,4.0,9.0,38,0.00,,,0.00,969,Wunderground v.1.15,2013-06-29 22:24:00,
2013-06-29 15:34:00,87.0,58.3,29.87,NE,39,8.0,8.0,38,0.00,,,0.00,204,Wunderground v.1.15,2013-06-29 22:34:00,
2013-06-29 15:40:00,86.0,58.2,29.87,NNE,17,8.0,8.0,39,0.00,,,0.00,199,Wunderground v.1.15,2013-06-29 22:40:00,
2013-06-29 15:45:00,85.4,58.3,29.87,North,355,8.0,8.0,40,0.00,,,0.00,232,Wunderground v.1.15,2013-06-29 22:45:00,
2013-06-29 15:54:00,85.8,58.7,29.86,North,5,6.0,6.0,40,0.00,,,0.00,239,Wunderground v.1.15,2013-06-29 22:54:00,
2013-06-29 16:00:00,85.6,59.2,29.86,North,360,7.0,7.0,41,0.00,,,0.00,745,Wunderground v.1.15,2013-06-29 23:00:00,
2013-06-29 16:09:00,86.1,59.0,29.86,NE,54,7.0,11.0,40,0.00,,,0.00,241,Wunderground v.1.15,2013-06-29 23:09:00,
2013-06-29 16:14:00,85.7,58.6,29.86,NNW,327,7.0,11.0,40,0.00,,,0.00,200,Wunderground v.1.15,2013-06-29 23:14:00,
2013-06-29 16:19:00,85.6,58.5,29.86,NNE,14,7.0,7.0,40,0.00,,,0.00,137,Wunderground v.1.15,2013-06-29 23:19:00,
2013-06-29 16:24:00,85.2,58.8,29.86,NNE,13,6.0,7.0,41,0.00,,,0.00,176,Wunderground v.1.15,2013-06-29 23:24:00,
2013-06-29 16:30:00,85.4,59.0,29.86,NNE,30,5.0,7.0,41,0.00,,,0.00,174,Wunderground v.1.15,2013-06-29 23:30:00,
2013-06-29 16:40:00,85.0,58.7,29.86,NE,48,5.0,7.0,41,0.00,,,0.00,179,Wunderground v.1.15,2013-06-29 23:40:00,
2013-06-29 16:49:00,85.6,56.3,29.86,North,5,4.0,5.0,37,0.00,,,0.00,192,Wunderground v.1.15,2013-06-29 23:49:00,
2013-06-29 16:54:00,85.5,58.4,29.86,NNW,346,6.0,7.0,40,0.00,,,0.00,172,Wunderground v.1.15,2013-06-29 23:54:00,
2013-06-29 17:00:00,85.3,58.9,29.86,North,11,7.0,7.0,41,0.00,,,0.00,134,Wunderground v.1.15,2013-06-30 00:00:00,
2013-06-29 17:09:00,84.9,58.6,29.86,North,5,6.0,6.0,41,0.00,,,0.00,675,Wunderground v.1.15,2013-06-30 00:09:00,
2013-06-29 17:14:00,85.0,58.0,29.85,NNE,23,6.0,7.0,40,0.00,,,0.00,95,Wunderground v.1.15,2013-06-30 00:14:00,
2013-06-29 17:19:00,85.5,58.4,29.85,North,360,5.0,5.0,40,0.00,,,0.00,575,Wunderground v.1.15,2013-06-30 00:19:00,
2013-06-29 17:25:00,86.7,57.3,29.85,North,9,6.0,11.0,37,0.00,,,0.00,610,Wunderground v.1.15,2013-06-30 00:25:00,
2013-06-29 17:30:00,86.7,58.1,29.85,NW,312,6.0,6.0,38,0.00,,,0.00,167,Wunderground v.1.15,2013-06-30 00:30:00,
2013-06-29 17:39:00,87.1,56.9,29.85,NW,325,6.0,8.0,36,0.00,,,0.00,98,Wunderground v.1.15,2013-06-30 00:39:00,
2013-06-29 17:44:00,86.3,57.0,29.85,NW,316,6.0,8.0,37,0.00,,,0.00,594,Wunderground v.1.15,2013-06-30 00:44:00,
2013-06-29 17:49:00,86.8,57.4,29.85,NNW,345,5.0,5.0,37,0.00,,,0.00,172,Wunderground v.1.15,2013-06-30 00:49:00,
2013-06-29 17:54:00,87.3,57.1,29.85,NW,323,4.0,5.0,36,0.00,,,0.00,566,Wunderground v.1.15,2013-06-30 00:54:00,
2013-06-29 18:00:00,87.6,56.6,29.85,NNW,348,5.0,5.0,35,0.00,,,0.00,171,Wunderground v.1.15,2013-06-30 01:00:00,
2013-06-29 18:10:00,86.7,56.6,29.85,NNW,336,2.0,2.0,36,0.00,,,0.00,149,Wunderground v.1.15,2013-06-30 01:10:00,
2013-06-29 18:15:00,86.3,57.0,29.85,WNW,288,2.0,3.0,37,0.00,,,0.00,142,Wunderground v.1.15,2013-06-30 01:15:00,
2013-06-29 18:25:00,85.7,56.4,29.85,NNW,339,2.0,3.0,37,0.00,,,0.00,118,Wunderground v.1.15,2013-06-30 01:25:00,
2013-06-29 18:34:00,85.4,56.2,29.85,NNW,338,2.0,3.0,37,0.00,,,0.00,86,Wunderground v.1.15,2013-06-30 01:34:00,
2013-06-29 18:39:00,85.7,57.2,29.85,WNW,303,2.0,7.0,38,0.00,,,0.00,388,Wunderground v.1.15,2013-06-30 01:39:00,
2013-06-29 18:44:00,86.4,56.3,29.85,NW,304,3.0,7.0,36,0.00,,,0.00,371,Wunderground v.1.15,2013-06-30 01:44:00,
2013-06-29 18:49:00,86.4,56.3,29.85,NW,311,3.0,5.0,36,0.00,,,0.00,334,Wunderground v.1.15,2013-06-30 01:49:00,
2013-06-29 19:00:00,87.3,57.1,29.85,WNW,292,5.0,6.0,36,0.00,,,0.00,299,Wunderground v.1.15,2013-06-30 02:00:00,
2013-06-29 19:10:00,86.1,56.8,29.85,WSW,238,6.0,6.0,37,0.00,,,0.00,218,Wunderground v.1.15,2013-06-30 02:10:00,
2013-06-29 19:15:00,85.6,56.3,29.85,WNW,288,6.0,6.0,37,0.00,,,0.00,51,Wunderground v.1.15,2013-06-30 02:15:00,
2013-06-29 19:24:00,84.8,56.4,29.85,WNW,288,1.0,4.0,38,0.00,,,0.00,53,Wunderground v.1.15,2013-06-30 02:24:00,
2013-06-29 19:34:00,84.3,57.3,29.85,WNW,295,4.0,7.0,40,0.00,,,0.00,46,Wunderground v.1.15,2013-06-30 02:34:00,
2013-06-29 19:39:00,84.0,57.1,29.85,WNW,298,2.0,2.0,40,0.00,,,0.00,81,Wunderground v.1.15,2013-06-30 02:39:00,
2013-06-29 19:44:00,83.8,57.6,29.85,WNW,300,1.0,2.0,41,0.00,,,0.00,53,Wunderground v.1.15,2013-06-30 02:44:00,
2013-06-29 19:49:00,83.6,58.1,29.85,WNW,303,1.0,1.0,42,0.00,,,0.00,62,Wunderground v.1.15,2013-06-30 02:49:00,
2013-06-29 19:54:00,83.3,57.8,29.85,WNW,296,2.0,2.0,42,0.00,,,0.00,93,Wunderground v.1.15,2013-06-30 02:54:00,
2013-06-29 20:00:00,83.1,58.3,29.85,NNW,331,2.0,4.0,43,0.00,,,0.00,42,Wunderground v.1.15,2013-06-30 03:00:00,
2013-06-29 20:10:00,82.7,58.6,29.85,NNW,338,3.0,3.0,44,0.00,,,0.00,77,Wunderground v.1.15,2013-06-30 03:10:00,
2013-06-29 20:19:00,82.6,58.5,29.85,NNW,340,3.0,3.0,44,0.00,,,0.00,62,Wunderground v.1.15,2013-06-30 03:19:00,
2013-06-29 20:24:00,82.5,58.4,29.86,NNW,342,2.0,5.0,44,0.00,,,0.00,47,Wunderground v.1.15,2013-06-30 03:24:00,
2013-06-29 20:29:00,82.4,58.3,29.86,NNW,329,3.0,3.0,44,0.00,,,0.00,39,Wunderground v.1.15,2013-06-30 03:29:00,
2013-06-29 20:39:00,82.0,58.6,29.86,NNW,338,3.0,3.0,45,0.00,,,0.00,12,Wunderground v.1.15,2013-06-30 03:39:00,
2013-06-29 20:44:00,81.7,58.3,29.86,NNW,338,3.0,3.0,45,0.00,,,0.00,9,Wunderground v.1.15,2013-06-30 03:44:00,
2013-06-29 20:49:00,81.5,58.7,29.86,NNW,344,3.0,3.0,46,0.00,,,0.00,7,Wunderground v.1.15,2013-06-30 03:49:00,
2013-06-29 20:54:00,81.2,59.1,29.86,North,349,4.0,9.0,47,0.00,,,0.00,5,Wunderground v.1.15,2013-06-30 03:54:00,
2013-06-29 21:00:00,80.5,59.0,29.87,NNE,22,6.0,7.0,48,0.00,,,0.00,0,Wunderground v.1.15,2013-06-30 04:00:00,
2013-06-29 21:05:00,79.8,58.9,29.87,NNE,19,8.0,9.0,49,0.00,,,0.00,0,Wunderground v.1.15,2013-06-30 04:05:00,
2013-06-29 21:10:00,79.3,58.5,29.87,North,360,9.0,9.0,49,0.00,,,0.00,0,Wunderground v.1.15,2013-06-30 04:10:00,
2013-06-29 21:15:00,79.1,58.3,29.87,North,355,9.0,9.0,49,0.00,,,0.00,0,Wunderground v.1.15,2013-06-30 04:15:00,
2013-06-29 21:19:00,78.8,58.0,29.87,NNE,12,8.0,8.0,49,0.00,,,0.00,0,Wunderground v.1.15,2013-06-30 04:19:00,
2013-06-29 21:24:00,78.3,58.1,29.88,NNW,348,7.0,8.0,50,0.00,,,0.00,0,Wunderground v.1.15,2013-06-30 04:24:00,
2013-06-29 21:29:00,78.1,57.9,29.88,North,355,7.0,8.0,50,0.00,,,0.00,0,Wunderground v.1.15,2013-06-30 04:29:00,
2013-06-29 21:34:00,77.8,58.2,29.89,North,355,6.0,9.0,51,0.00,,,0.00,0,Wunderground v.1.15,2013-06-30 04:34:00,
2013-06-29 21:39:00,77.3,58.3,29.89,NNW,333,5.0,5.0,52,0.00,,,0.00,0,Wunderground v.1.15,2013-06-30 04:39:00,
2013-06-29 21:49:00,76.8,58.4,29.89,North,5,3.0,9.0,53,0.00,,,0.00,0,Wunderground v.1.15,2013-06-30 04:49:00,
2013-06-29 21:54:00,76.5,58.1,29.90,NNW,340,4.0,9.0,53,0.00,,,0.00,0,Wunderground v.1.15,2013-06-30 04:54:00,
2013-06-29 22:00:00,76.2,58.3,29.90,North,355,4.0,4.0,54,0.00,,,0.00,0,Wunderground v.1.15,2013-06-30 05:00:00,
2013-06-29 22:09:00,75.8,58.0,29.90,NNW,342,5.0,5.0,54,0.00,,,0.00,0,Wunderground v.1.15,2013-06-30 05:09:00,
2013-06-29 22:14:00,75.6,57.8,29.90,North,5,5.0,5.0,54,0.00,,,0.00,0,Wunderground v.1.15,2013-06-30 05:14:00,
2013-06-29 22:24:00,75.4,57.6,29.90,NNW,336,7.0,7.0,54,0.00,,,0.00,0,Wunderground v.1.15,2013-06-30 05:24:00,
2013-06-29 22:29:00,75.1,57.3,29.89,NW,325,6.0,6.0,54,0.00,,,0.00,0,Wunderground v.1.15,2013-06-30 05:29:00,
2013-06-29 22:34:00,75.0,57.2,29.89,NW,326,5.0,6.0,54,0.00,,,0.00,0,Wunderground v.1.15,2013-06-30 05:34:00,
2013-06-29 22:39:00,74.7,57.5,29.90,North,5,5.0,6.0,55,0.00,,,0.00,0,Wunderground v.1.15,2013-06-30 05:39:00,
2013-06-29 22:44:00,74.5,57.3,29.90,NNW,338,4.0,7.0,55,0.00,,,0.00,0,Wunderground v.1.15,2013-06-30 05:44:00,
2013-06-29 22:54:00,74.3,56.6,29.90,NNW,338,4.0,8.0,54,0.00,,,0.00,0,Wunderground v.1.15,2013-06-30 05:54:00,
2013-06-29 23:00:00,74.1,56.4,29.90,North,360,4.0,4.0,54,0.00,,,0.00,0,Wunderground v.1.15,2013-06-30 06:00:00,
2013-06-29 23:09:00,73.8,56.1,29.90,North,5,2.0,5.0,54,0.00,,,0.00,0,Wunderground v.1.15,2013-06-30 06:09:00,
2013-06-29 23:14:00,73.7,56.0,29.90,NNE,32,4.0,10.0,54,0.00,,,0.00,0,Wunderground v.1.15,2013-06-30 06:14:00,
2013-06-29 23:19:00,73.8,55.6,29.90,North,5,8.0,8.0,53,0.00,,,0.00,0,Wunderground v.1.15,2013-06-30 06:19:00,
2013-06-29 23:29:00,73.8,55.6,29.90,North,5,8.0,9.0,53,0.00,,,0.00,0,Wunderground v.1.15,2013-06-30 06:29:00,
2013-06-29 23:34:00,73.7,55.5,29.90,North,5,7.0,9.0,53,0.00,,,0.00,0,Wunderground v.1.15,2013-06-30 06:34:00,
2013-06-29 23:39:00,73.5,55.3,29.91,NNW,348,7.0,7.0,53,0.00,,,0.00,0,Wunderground v.1.15,2013-06-30 06:39:00,
2013-06-29 23:44:00,73.2,55.0,29.91,North,5,6.0,10.0,53,0.00,,,0.00,0,Wunderground v.1.15,2013-06-30 06:44:00,
2013-06-29 23:50:00,72.9,54.8,29.91,NNW,342,7.0,7.0,53,0.00,,,0.00,0,Wunderground v.1.15,2013-06-30 06:50:00,
2013-06-29 23:55:00,72.6,55.0,29.91,NNW,333,7.0,7.0,54,0.00,,,0.00,0,Wunderground v.1.15,2013-06-30 06:55:00,